Time;durP1;ratioP1;P1;durP2;ratioP2;P2;SDS_P1;SDS_P2;PMS_P1;PMS_P2;Temp;Humidity;BMP_temperature;BMP_pressure;BME280_temperature;BME280_humidity;BME280_pressure;Samples;Min_cycle;Max_cycle;Signal;HPM_P1;HPM_P2
2021/04/29 00:01:44;;;;;;;;;;;;;;;16.24;70.41;100081.44;4939613;29;19914;-81
2021/04/29 00:04:29;;;;;;;;;;;;;;;16.25;70.63;100078.31;4938981;29;19914;-81
2021/04/29 00:07:14;;;;;;;;;;;;;;;16.22;70.96;100084.53;4940900;29;19918;-80
2021/04/29 00:09:58;;;;;;;;;;;;;;;16.24;70.60;100090.47;4931393;29;20302;-81
2021/04/29 00:12:42;;;;;;;;;;;;;;;16.29;70.59;100092.09;4942127;29;19918;-81
2021/04/29 00:15:27;;;;;;;;;;;;;;;16.30;70.45;100090.94;4935363;29;19914;-81
2021/04/29 00:18:12;;;;;;;;;;;;;;;16.29;70.69;100088.56;4938854;29;19918;-82
2021/04/29 00:20:57;;;;;;;;;;;;;;;16.21;71.04;100096.69;4931360;29;19915;-80
2021/04/29 00:23:42;;;;;;;;;;;;;;;16.18;71.39;100091.94;5004289;23;19922;-76
2021/04/29 00:26:26;;;;;;;;;;;;;;;16.15;71.62;100089.91;4996564;28;20390;-76
2021/04/29 00:29:11;;;;;;;;;;;;;;;16.19;71.31;100093.53;4995707;28;19913;-77
2021/04/29 00:31:55;;;;;;;;;;;;;;;16.17;71.36;100095.03;4983362;28;19914;-78
2021/04/29 00:34:39;;;;;;;;;;;;;;;16.08;71.60;100095.31;4980242;28;19914;-78
2021/04/29 00:37:24;;;;;;;;;;;;;;;16.08;71.77;100089.81;4976636;28;20302;-79
2021/04/29 00:40:09;;;;;;;;;;;;;;;15.89;73.13;100092.63;4978915;28;19914;-78
2021/04/29 00:42:54;;;;;;;;;;;;;;;15.94;72.62;100089.59;4978727;28;20302;-79
2021/04/29 00:45:39;;;;;;;;;;;;;;;16.04;72.35;100108.16;5003329;28;19914;-78
2021/04/29 00:48:23;;;;;;;;;;;;;;;16.10;72.17;100098.44;4993909;28;19914;-78
2021/04/29 00:51:09;;;;;;;;;;;;;;;16.14;72.32;100098.53;4996999;28;20382;-79
2021/04/29 00:53:54;;;;;;;;;;;;;;;16.17;72.03;100103.28;4975793;28;19914;-79
2021/04/29 00:56:38;;;;;;;;;;;;;;;16.13;71.78;100105.16;4976266;28;19918;-77
2021/04/29 00:59:23;;;;;;;;;;;;;;;16.10;72.25;100092.19;4983701;28;19914;-78
2021/04/29 01:02:08;;;;;;;;;;;;;;;16.06;72.48;100085.84;4983553;28;19914;-79
2021/04/29 01:05:02;;;;;;;;;;;;;;;15.98;72.91;100081.41;4989991;28;19914;-78
2021/04/29 01:08:16;;;;;;;;;;;;;;;16.00;73.07;100084.59;4979712;28;19914;-78
2021/04/29 01:11:09;;;;;;;;;;;;;;;16.01;72.68;100092.44;4983914;28;19914;-79
2021/04/29 01:13:56;;;;;;;;;;;;;;;16.01;72.37;100086.94;4990952;28;20325;-78
2021/04/29 01:16:40;;;;;;;;;;;;;;;15.93;72.59;100087.19;4995815;28;19918;-78
2021/04/29 01:19:34;;;;;;;;;;;;;;;15.96;72.37;100090.00;4988861;28;19914;-79
2021/04/29 01:22:18;;;;;;;;;;;;;;;15.93;72.21;100093.47;4979852;28;19921;-79
2021/04/29 01:25:07;;;;;;;;;;;;;;;15.89;72.37;100089.88;4978308;28;19914;-79
2021/04/29 01:47:42;;;;;;;27.55;21.25;;;;;;;16.08;70.87;100078.84;5070285;23;20791;-78
2021/04/29 01:50:27;;;;;;;29.20;21.27;;;;;;;15.93;71.71;100073.50;5030438;28;20037;-81
2021/04/29 01:53:14;;;;;;;28.50;21.33;;;;;;;16.02;71.66;100080.31;5033550;28;20045;-81
2021/04/29 01:55:58;;;;;;;28.33;21.75;;;;;;;16.04;71.31;100075.25;5035862;28;20068;-79
2021/04/29 01:58:43;;;;;;;;;;;;;;;16.00;71.44;100079.88;5030867;28;20057;-80
2021/04/29 02:01:28;;;;;;;31.08;22.83;;;;;;;15.95;71.82;100074.69;5016098;28;19913;-82
2021/04/29 02:04:14;;;;;;;30.60;22.85;;;;;;;15.91;72.11;100084.81;5020807;28;20049;-81
2021/04/29 02:06:59;;;;;;;;;;;;;;;15.93;72.22;100088.00;5013015;28;20057;-80
2021/04/29 02:09:45;;;;;;;30.85;23.08;;;;;;;15.96;72.30;100073.53;5010808;28;19913;-82
2021/04/29 02:12:33;;;;;;;;;;;;;;;15.99;72.15;100083.78;5021325;28;20049;-80
2021/04/29 02:15:19;;;;;;;34.47;22.80;;;;;;;15.81;73.51;100082.69;5029075;28;19913;-82
2021/04/29 02:18:18;;;;;;;35.00;26.25;;;;;;;15.85;73.25;100072.56;5014467;28;20049;-82
2021/04/29 02:21:03;;;;;;;31.35;24.55;;;;;;;15.77;73.99;100071.66;5017436;28;20037;-80
2021/04/29 02:23:49;;;;;;;39.75;26.33;;;;;;;15.79;73.60;100071.31;5039544;28;20060;-86
2021/04/29 02:26:34;;;;;;;35.08;24.58;;;;;;;15.79;72.93;100069.38;5022971;28;20069;-85
2021/04/29 02:29:19;;;;;;;32.17;23.23;;;;;;;15.75;73.17;100067.69;5034819;28;20057;-83
2021/04/29 02:32:05;;;;;;;31.98;24.55;;;;;;;15.70;73.21;100063.31;5016229;28;20689;-84
2021/04/29 02:34:49;;;;;;;31.55;22.63;;;;;;;15.73;73.39;100067.28;5038837;28;20498;-84
2021/04/29 02:37:35;;;;;;;33.08;24.52;;;;;;;15.79;73.08;100063.09;5020404;28;20049;-84
2021/04/29 02:40:22;;;;;;;34.28;25.42;;;;;;;15.74;73.61;100071.63;5020818;28;20451;-83
2021/04/29 02:43:11;;;;;;;45.30;26.35;;;;;;;15.51;74.86;100073.50;5024781;28;20037;-84
2021/04/29 02:45:56;;;;;;;34.38;25.80;;;;;;;15.66;74.02;100072.63;5002292;28;20065;-82
2021/04/29 02:48:41;;;;;;;;;;;;;;;15.73;73.53;100076.31;5010943;28;20686;-82
2021/04/29 02:51:26;;;;;;;40.75;27.00;;;;;;;15.69;74.07;100078.19;5023459;28;20297;-78
2021/04/29 02:54:11;;;;;;;36.42;26.85;;;;;;;15.66;73.82;100078.91;5041708;28;20064;-80
2021/04/29 02:56:56;;;;;;;35.20;26.60;;;;;;;15.43;75.42;100080.03;5020519;28;20056;-78
2021/04/29 02:59:41;;;;;;;;;;;;;;;15.58;74.33;100090.13;5019321;28;20053;-79
2021/04/29 03:02:26;;;;;;;37.65;26.60;;;;;;;15.62;73.78;100089.03;5022285;28;19996;-78
2021/04/29 03:05:14;;;;;;;35.75;24.67;;;;;;;15.66;73.65;100084.38;5019014;28;20069;-79
2021/04/29 03:07:59;;;;;;;48.88;27.15;;;;;;;15.66;73.19;100076.16;5028237;28;20049;-77
2021/04/29 03:10:44;;;;;;;33.45;25.05;;;;;;;15.69;73.13;100072.72;5034462;28;20064;-78
2021/04/29 03:13:29;;;;;;;37.13;25.63;;;;;;;15.76;72.95;100072.81;5024791;28;20138;-79
2021/04/29 03:16:14;;;;;;;36.72;27.10;;;;;;;15.65;73.50;100074.56;5021640;28;20053;-80
2021/04/29 03:18:59;;;;;;;29.50;20.70;;;;;;;15.69;73.06;100074.66;5035984;28;20614;-79
2021/04/29 03:21:44;;;;;;;;;;;;;;;15.71;73.21;100080.56;5026635;28;20053;-80
2021/04/29 03:24:29;;;;;;;34.58;24.67;;;;;;;15.62;73.53;100078.06;5021471;28;20381;-79
2021/04/29 03:27:15;;;;;;;;;;;;;;;15.70;73.24;100087.19;5016571;28;20053;-77
2021/04/29 03:29:59;;;;;;;36.47;25.15;;;;;;;15.67;73.23;100085.19;5019456;28;19914;-81
2021/04/29 03:32:45;;;;;;;35.75;25.70;;;;;;;15.65;73.10;100082.78;5026258;28;20048;-78
2021/04/29 03:35:30;;;;;;;34.38;24.92;;;;;;;15.63;73.15;100078.84;5030195;28;20052;-80
2021/04/29 03:38:15;;;;;;;;;;;;;;;15.64;73.29;100088.66;5020067;28;20245;-80
2021/04/29 03:41:00;;;;;;;36.75;25.10;;;;;;;15.59;73.53;100084.28;5018418;28;19913;-79
2021/04/29 03:43:45;;;;;;;27.13;19.23;;;;;;;15.62;73.43;100083.53;5030444;28;20044;-79
2021/04/29 03:46:30;;;;;;;32.25;24.70;;;;;;;15.69;73.33;100085.63;5020581;28;20072;-80
2021/04/29 03:49:15;;;;;;;;;;;;;;;15.67;73.28;100085.19;5035501;28;20057;-79
2021/04/29 03:52:01;;;;;;;35.05;24.73;;;;;;;15.64;73.46;100085.94;5034487;28;19921;-79
2021/04/29 03:54:46;;;;;;;35.75;24.75;;;;;;;15.66;73.31;100091.81;5036006;28;20044;-79
2021/04/29 03:57:30;;;;;;;;;;;;;;;15.62;73.36;100089.03;5035624;28;20045;-79
2021/04/29 04:00:16;;;;;;;37.47;23.98;;;;;;;15.63;73.48;100087.06;5015989;28;19922;-78
2021/04/29 04:03:00;;;;;;;34.03;24.80;;;;;;;15.61;73.81;100089.38;5032183;28;20044;-77
2021/04/29 04:05:45;;;;;;;;;;;;;;;15.60;73.94;100091.31;5027909;28;20080;-78
2021/04/29 04:08:30;;;;;;;34.97;24.77;;;;;;;15.64;73.62;100092.19;5015690;28;19913;-80
2021/04/29 04:11:15;;;;;;;;;;;;;;;15.64;73.74;100097.69;5029152;28;20057;-79
2021/04/29 04:14:00;;;;;;;39.08;26.75;;;;;;;15.65;73.55;100092.97;5026918;28;19917;-78
2021/04/29 04:16:45;;;;;;;38.65;27.30;;;;;;;15.61;73.99;100092.91;5028032;28;20045;-79
2021/04/29 04:19:30;;;;;;;;;;;;;;;15.60;74.15;100101.50;5021079;28;20518;-80
2021/04/29 04:22:15;;;;;;;36.78;25.38;;;;;;;15.55;74.33;100104.53;5033874;28;19913;-80
2021/04/29 04:25:00;;;;;;;37.00;26.17;;;;;;;15.54;74.28;100101.03;5034573;28;20044;-80
2021/04/29 04:27:45;;;;;;;;;;;;;;;15.59;74.00;100105.41;5025628;28;20037;-79
2021/04/29 04:30:30;;;;;;;40.53;28.58;;;;;;;15.45;74.69;100096.88;5018269;28;19914;-80
2021/04/29 04:33:15;;;;;;;45.17;29.13;;;;;;;15.57;74.36;100113.19;5033263;28;20042;-79
2021/04/29 04:36:00;;;;;;;29.35;21.58;;;;;;;15.57;73.42;100110.44;5032142;28;20049;-79
2021/04/29 04:38:45;;;;;;;40.03;28.35;;;;;;;15.59;73.93;100114.44;5032776;28;20041;-78
2021/04/29 04:41:31;;;;;;;37.40;27.10;;;;;;;15.50;74.70;100116.53;5022009;28;20049;-80
2021/04/29 04:44:16;;;;;;;40.78;28.10;;;;;;;14.67;78.68;100115.25;5033873;28;20414;-75
2021/04/29 04:47:01;;;;;;;34.72;23.70;;;;;;;14.32;81.01;100123.41;5017137;28;20045;-76
2021/04/29 04:49:46;;;;;;;;;;;;;;;14.29;81.58;100115.88;5019761;28;20034;-75
2021/04/29 04:52:31;;;;;;;42.78;28.23;;;;;;;14.04;80.54;100117.22;5019312;28;20306;-76
2021/04/29 04:55:16;;;;;;;35.03;24.23;;;;;;;14.01;81.25;100132.41;5018515;28;20503;-75
2021/04/29 04:58:02;;;;;;;46.78;31.17;;;;;;;13.95;81.25;100130.28;5016383;28;20046;-77
2021/04/29 05:00:50;;;;;;;50.45;33.58;;;;;;;13.77;82.73;100131.72;5015486;28;20050;-76
2021/04/29 05:03:34;;;;;;;46.95;32.60;;;;;;;13.84;83.29;100126.47;5028410;28;20569;-76
2021/04/29 05:06:19;;;;;;;34.83;24.00;;;;;;;13.92;83.03;100133.69;5025245;28;20522;-76
2021/04/29 05:09:06;;;;;;;36.72;25.77;;;;;;;14.07;81.72;100127.44;5020545;28;20049;-78
2021/04/29 05:11:51;;;;;;;43.25;30.60;;;;;;;14.09;81.58;100127.88;5030298;28;20041;-79
2021/04/29 05:14:36;;;;;;;32.38;22.80;;;;;;;14.06;81.66;100128.59;5032126;28;20522;-79
2021/04/29 05:17:21;;;;;;;51.63;32.67;;;;;;;14.09;81.01;100134.16;5028383;28;20037;-81
2021/04/29 05:20:06;;;;;;;43.92;30.88;;;;;;;14.15;81.62;100131.94;5014055;28;20435;-81
2021/04/29 05:22:53;;;;;;;50.03;31.58;;;;;;;14.11;81.30;100137.34;5029388;28;20426;-81
2021/04/29 05:25:38;;;;;;;47.33;31.77;;;;;;;13.98;82.09;100126.81;5041005;28;20104;-82
2021/04/29 05:28:24;;;;;;;53.13;33.72;;;;;;;14.11;81.34;100137.34;5032475;28;20045;-82
2021/04/29 05:31:09;;;;;;;;;;;;;;;14.30;80.51;100128.41;5002504;28;20418;-81
2021/04/29 05:33:53;;;;;;;44.03;31.90;;;;;;;14.39;80.87;100129.03;5025272;28;19921;-81
2021/04/29 05:36:39;;;;;;;45.22;30.65;;;;;;;14.44;80.41;100127.97;5033194;28;20046;-80
2021/04/29 05:39:24;;;;;;;35.13;24.13;;;;;;;14.32;81.05;100130.81;5019680;28;20041;-79
2021/04/29 05:42:08;;;;;;;39.33;24.00;;;;;;;14.24;81.51;100135.28;5024658;28;20748;-80
2021/04/29 05:44:54;;;;;;;46.85;31.33;;;;;;;14.30;81.14;100136.63;5024629;28;20045;-81
2021/04/29 05:47:39;;;;;;;;;;;;;;;14.28;81.51;100140.84;5024502;28;20049;-80
2021/04/29 05:50:24;;;;;;;53.22;35.22;;;;;;;14.36;81.67;100142.63;5015428;28;20375;-80
2021/04/29 05:53:09;;;;;;;37.70;27.38;;;;;;;14.43;81.11;100140.84;5018971;28;20049;-80
2021/04/29 05:55:54;;;;;;;;;;;;;;;14.59;81.03;100140.84;5003090;28;20415;-81
2021/04/29 05:58:39;;;;;;;48.50;34.55;;;;;;;14.63;80.91;100149.91;5014882;28;19913;-81
2021/04/29 06:01:24;;;;;;;;;;;;;;;14.73;81.08;100141.16;5014335;28;20050;-81
2021/04/29 06:04:09;;;;;;;45.85;32.58;;;;;;;14.81;79.85;100137.44;5017347;28;19913;-81
2021/04/29 06:06:55;;;;;;;45.25;33.22;;;;;;;14.60;80.86;100134.22;5021011;28;20041;-79
2021/04/29 06:09:41;;;;;;;45.75;32.42;;;;;;;14.46;81.61;100140.16;5025016;28;20510;-79
2021/04/29 06:12:26;;;;;;;47.92;33.15;;;;;;;14.52;80.64;100136.00;5035443;28;20041;-79
2021/04/29 06:15:12;;;;;;;40.70;29.23;;;;;;;14.78;79.41;100143.63;5034367;28;20402;-78
2021/04/29 06:17:57;;;;;;;29.88;21.60;;;;;;;14.55;79.07;100148.97;5032122;28;20045;-79
2021/04/29 06:20:42;;;;;;;44.38;28.35;;;;;;;14.47;80.06;100144.50;5039642;28;20048;-78
2021/04/29 06:23:27;;;;;;;35.78;23.08;;;;;;;14.26;80.33;100154.88;5037766;28;20045;-81
2021/04/29 06:26:12;;;;;;;;;;;;;;;14.18;80.46;100160.50;5036904;28;20060;-80
2021/04/29 06:28:57;;;;;;;38.13;26.30;;;;;;;14.20;80.13;100159.03;5036871;28;19917;-79
2021/04/29 06:31:44;;;;;;;31.45;21.85;;;;;;;14.42;79.61;100154.91;5038225;28;20046;-81
2021/04/29 06:34:30;;;;;;;41.05;27.15;;;;;;;14.32;79.25;100158.94;5021258;28;20514;-79
2021/04/29 06:37:15;;;;;;;28.20;19.85;;;;;;;14.64;78.92;100164.41;5040227;28;20041;-80
2021/04/29 06:40:00;;;;;;;32.13;22.27;;;;;;;14.40;78.70;100171.66;5038649;28;20052;-79
2021/04/29 06:42:45;;;;;;;38.83;28.05;;;;;;;14.37;79.08;100177.88;5026193;28;20045;-80
2021/04/29 06:45:30;;;;;;;36.60;26.55;;;;;;;14.53;78.57;100180.56;5020700;28;20046;-80
2021/04/29 06:48:15;;;;;;;31.13;21.95;;;;;;;14.29;78.73;100189.72;5020488;28;20045;-82
2021/04/29 06:51:02;;;;;;;40.47;26.88;;;;;;;14.44;78.83;100182.69;5022297;28;20050;-80
2021/04/29 06:53:48;;;;;;;43.30;30.30;;;;;;;14.36;79.28;100191.84;5020128;28;20049;-79
2021/04/29 06:56:34;;;;;;;42.70;27.65;;;;;;;14.45;79.17;100196.03;5018481;28;20041;-80
2021/04/29 06:59:20;;;;;;;44.50;29.58;;;;;;;14.54;79.07;100204.03;5014750;28;20046;-78
2021/04/29 07:02:05;;;;;;;43.45;27.92;;;;;;;14.38;78.63;100201.31;5019564;28;20057;-79
2021/04/29 07:04:50;;;;;;;32.60;21.75;;;;;;;14.28;79.58;100207.28;5014570;28;20076;-79
2021/04/29 07:07:34;;;;;;;;;;;;;;;14.45;79.02;100212.44;5016395;28;20061;-80
2021/04/29 07:10:21;;;;;;;39.78;27.42;;;;;;;14.53;79.11;100216.13;5040103;28;20385;-79
2021/04/29 07:13:06;;;;;;;39.30;27.02;;;;;;;14.37;79.64;100207.16;5022621;28;20057;-79
2021/04/29 07:15:51;;;;;;;41.70;27.65;;;;;;;14.50;79.10;100203.97;5036008;28;20524;-79
2021/04/29 07:18:36;;;;;;;39.78;28.02;;;;;;;14.40;79.57;100209.16;5034378;28;20054;-80
2021/04/29 07:21:21;;;;;;;46.15;27.38;;;;;;;14.40;80.05;100207.22;5038099;28;20052;-79
2021/04/29 07:24:06;;;;;;;42.53;24.60;;;;;;;14.40;80.03;100209.97;5035687;28;20049;-79
2021/04/29 07:26:51;;;;;;;38.08;25.60;;;;;;;14.50;80.06;100214.91;5034477;28;20052;-78
2021/04/29 07:29:36;;;;;;;34.10;24.88;;;;;;;14.88;79.25;100214.22;5038019;28;20049;-78
2021/04/29 07:32:22;;;;;;;39.42;27.42;;;;;;;15.03;78.59;100217.31;5035912;28;20041;-78
2021/04/29 07:35:07;;;;;;;;;;;;;;;15.13;77.85;100209.34;5034608;28;20046;-81
2021/04/29 07:37:52;;;;;;;36.13;25.60;;;;;;;15.20;77.35;100206.75;5037871;28;19912;-80
2021/04/29 07:40:37;;;;;;;;;;;;;;;15.21;77.31;100213.81;5036445;28;20052;-80
2021/04/29 07:43:21;;;;;;;37.92;25.50;;;;;;;15.32;76.85;100203.88;5033941;28;20298;-79
2021/04/29 07:46:06;;;;;;;39.28;23.90;;;;;;;15.46;75.40;100206.13;5038456;28;20049;-80
2021/04/29 07:48:51;;;;;;;29.40;19.42;;;;;;;15.46;74.32;100203.38;5053885;22;20042;-79
2021/04/29 07:51:36;;;;;;;25.77;17.85;;;;;;;15.55;74.83;100208.66;4995724;28;20057;-79
2021/04/29 07:54:21;;;;;;;32.67;21.13;;;;;;;15.78;73.12;100206.78;4978575;28;20046;-79
2021/04/29 07:57:06;;;;;;;27.65;19.48;;;;;;;15.60;74.65;100200.16;4982317;28;20412;-79
2021/04/29 07:59:51;;;;;;;;;;;;;;;16.15;71.49;100198.88;4979254;28;20046;-79
2021/04/29 08:02:36;;;;;;;28.20;18.50;;;;;;;16.37;69.94;100205.50;4979648;28;19918;-79
2021/04/29 08:05:20;;;;;;;;;;;;;;;16.71;68.61;100204.50;4984003;28;20039;-80
2021/04/29 08:08:05;;;;;;;27.83;19.88;;;;;;;16.86;68.85;100206.34;4982280;28;20415;-80
2021/04/29 08:10:50;;;;;;;19.25;13.63;;;;;;;17.09;67.21;100204.31;4981378;28;20039;-79
2021/04/29 08:13:37;;;;;;;;;;;;;;;16.13;69.02;100204.72;4979003;28;20059;-79
2021/04/29 08:16:22;;;;;;;22.15;15.20;;;;;;;16.46;68.17;100200.56;4979881;28;19977;-79
2021/04/29 08:19:07;;;;;;;;;;;;;;;16.14;70.23;100198.06;4977269;28;20038;-78
2021/04/29 08:21:51;;;;;;;26.60;17.63;;;;;;;16.15;69.94;100207.88;4975722;28;19914;-81
2021/04/29 08:24:36;;;;;;;;;;;;;;;15.86;70.51;100213.19;4981554;28;20418;-79
2021/04/29 08:27:25;;;;;;;20.42;12.93;;;;;;;16.15;70.33;100215.34;4978711;28;20380;-79
2021/04/29 08:30:13;;;;;;;20.10;14.98;;;;;;;16.23;70.62;100219.78;4976831;28;20046;-76
2021/04/29 08:33:00;;;;;;;22.80;16.83;;;;;;;16.68;68.24;100228.03;4988625;28;20042;-75
2021/04/29 08:35:44;;;;;;;37.42;18.70;;;;;;;16.54;68.68;100233.25;4994670;28;20492;-75
2021/04/29 08:38:29;;;;;;;29.60;17.25;;;;;;;16.61;68.57;100229.84;4993480;28;20050;-76
2021/04/29 08:41:14;;;;;;;;;;;;;;;16.65;68.33;100223.28;4998459;28;20042;-78
2021/04/29 08:43:59;;;;;;;24.73;17.40;;;;;;;16.77;69.19;100225.00;4995487;28;19913;-76
2021/04/29 08:46:45;;;;;;;21.88;15.70;;;;;;;16.86;68.09;100228.31;4978793;28;20045;-76
2021/04/29 08:49:31;;;;;;;23.13;16.30;;;;;;;16.96;68.78;100229.63;4995708;28;20049;-76
2021/04/29 08:52:16;;;;;;;25.48;17.38;;;;;;;16.61;68.71;100232.59;4994981;28;20053;-76
2021/04/29 08:55:01;;;;;;;22.58;17.35;;;;;;;16.67;68.96;100239.38;4993515;28;20054;-76
2021/04/29 08:57:46;;;;;;;18.35;12.52;;;;;;;16.58;68.32;100234.13;4997217;28;20050;-76
2021/04/29 09:00:32;;;;;;;24.38;16.10;;;;;;;16.73;68.57;100239.84;4992995;28;20049;-76
2021/04/29 09:03:27;;;;;;;22.33;15.50;;;;;;;16.84;67.86;100236.13;4985746;28;20039;-76
2021/04/29 09:06:12;;;;;;;25.50;18.02;;;;;;;16.63;68.28;100233.03;4977356;28;20043;-76
2021/04/29 09:08:58;;;;;;;22.70;16.38;;;;;;;16.36;68.25;100236.84;4982591;28;20046;-76
2021/04/29 09:11:56;;;;;;;23.90;16.65;;;;;;;16.26;69.16;100235.50;4993110;28;20038;-76
2021/04/29 09:14:42;;;;;;;21.50;16.40;;;;;;;16.30;68.74;100238.31;4999891;28;20047;-81
2021/04/29 09:17:27;;;;;;;26.98;18.08;;;;;;;16.15;68.99;100229.81;5003462;28;20049;-81
2021/04/29 09:20:12;;;;;;;;;;;;;;;16.08;69.54;100237.94;5000733;28;20844;-81
2021/04/29 09:23:06;;;;;;;19.15;12.63;;;;;;;16.01;70.22;100247.97;5001119;28;19914;-82
2021/04/29 09:26:05;;;;;;;21.90;15.82;;;;;;;15.90;70.43;100239.53;4999194;28;20053;-81
2021/04/29 09:28:54;;;;;;;18.20;13.05;;;;;;;15.87;69.53;100236.72;5001714;28;20039;-81
2021/04/29 09:31:42;;;;;;;20.95;13.45;;;;;;;15.85;70.14;100239.81;5000265;28;20042;-80
2021/04/29 09:34:39;;;;;;;19.42;13.32;;;;;;;15.85;69.60;100237.06;4998196;28;20054;-81
2021/04/29 09:37:36;;;;;;;21.92;13.07;;;;;;;15.67;69.21;100238.69;5000887;28;20053;-81
2021/04/29 09:40:30;;;;;;;15.90;10.20;;;;;;;15.79;69.57;100233.88;4988659;28;20503;-80
2021/04/29 09:43:15;;;;;;;14.50;10.75;;;;;;;15.79;68.58;100235.81;5012936;28;20057;-81
2021/04/29 09:46:02;;;;;;;15.13;10.75;;;;;;;15.87;69.38;100234.78;5020563;28;20038;-80
2021/04/29 09:48:49;;;;;;;14.13;10.88;;;;;;;15.90;69.04;100234.03;5017489;28;20065;-81
2021/04/29 09:51:35;;;;;;;13.45;9.82;;;;;;;16.11;68.14;100231.69;5016376;28;20041;-81
2021/04/29 09:54:27;;;;;;;12.10;9.98;;;;;;;16.19;67.93;100229.91;5022609;28;20438;-81
2021/04/29 09:57:19;;;;;;;14.77;10.98;;;;;;;16.29;68.18;100231.25;5022214;28;20041;-81
2021/04/29 10:00:10;;;;;;;15.65;11.02;;;;;;;16.32;67.91;100236.00;5024959;28;20042;-84
2021/04/29 10:02:56;;;;;;;15.88;9.88;;;;;;;16.24;66.71;100238.63;5025438;28;20046;-82
2021/04/29 10:05:42;;;;;;;13.65;9.85;;;;;;;16.21;65.84;100239.34;4994744;28;20420;-83
2021/04/29 10:08:27;;;;;;;16.45;12.18;;;;;;;16.18;66.73;100239.28;4988773;28;20531;-83
2021/04/29 10:11:13;;;;;;;15.85;11.07;;;;;;;16.31;67.49;100234.41;4987487;28;20051;-83
2021/04/29 10:14:00;;;;;;;16.02;11.00;;;;;;;16.31;66.74;100234.41;4990548;28;20053;-83
2021/04/29 10:16:46;;;;;;;17.73;13.23;;;;;;;16.36;67.74;100242.31;4987915;28;20047;-85
2021/04/29 10:19:34;;;;;;;23.73;12.93;;;;;;;16.29;66.76;100240.28;5000265;28;20057;-81
2021/04/29 10:22:22;;;;;;;16.70;12.15;;;;;;;16.31;66.99;100246.16;5003320;28;20049;-81
2021/04/29 10:25:07;;;;;;;20.20;13.20;;;;;;;16.34;66.84;100239.97;5007668;28;20050;-83
2021/04/29 10:27:55;;;;;;;18.38;12.90;;;;;;;16.27;66.47;100242.56;5004700;28;20046;-82
2021/04/29 10:30:40;;;;;;;18.75;13.90;;;;;;;16.24;67.47;100249.59;5002375;28;20062;-83
2021/04/29 10:33:25;;;;;;;;;;;;;;;16.30;68.17;100244.59;5005980;28;20049;-84
2021/04/29 10:36:12;;;;;;;20.90;14.13;;;;;;;16.31;67.75;100240.69;5006299;28;19913;-84
2021/04/29 10:39:18;;;;;;;24.20;15.00;;;;;;;16.36;67.69;100248.63;5005577;28;20050;-85
2021/04/29 10:42:09;;;;;;;21.80;14.98;;;;;;;16.36;67.87;100250.56;5014260;28;20065;-85
2021/04/29 10:45:06;;;;;;;24.05;14.80;;;;;;;16.36;67.86;100245.06;5004180;28;20046;-85
2021/04/29 10:48:06;;;;;;;18.48;13.60;;;;;;;16.41;67.09;100248.31;5004966;28;20057;-84
2021/04/29 10:50:51;;;;;;;21.48;14.55;;;;;;;16.34;67.12;100237.22;4971564;28;20051;-84
2021/04/29 10:53:38;;;;;;;18.63;13.13;;;;;;;16.36;67.23;100245.06;4982395;28;20058;-84
2021/04/29 10:56:23;;;;;;;17.60;13.80;;;;;;;16.33;66.89;100249.34;4985298;28;20408;-84
2021/04/29 10:59:14;;;;;;;13.18;10.82;;;;;;;16.32;67.58;100245.00;4983742;28;20227;-84
2021/04/29 11:01:59;;;;;;;22.17;15.15;;;;;;;16.34;68.18;100247.41;4981394;28;20043;-86
2021/04/29 11:04:45;;;;;;;23.20;14.45;;;;;;;16.30;68.67;100249.31;4985525;28;20038;-86
2021/04/29 11:07:30;;;;;;;24.02;13.77;;;;;;;16.35;69.38;100240.78;4985551;28;20050;-86
2021/04/29 11:10:17;;;;;;;17.95;14.40;;;;;;;16.23;69.53;100236.25;4977120;28;20062;-86
2021/04/29 11:13:03;;;;;;;21.17;14.35;;;;;;;16.31;68.79;100242.63;4987436;28;20034;-86
2021/04/29 11:15:57;;;;;;;21.20;16.02;;;;;;;16.33;68.78;100246.59;4984770;28;20042;-86
2021/04/29 11:18:42;;;;;;;21.33;16.30;;;;;;;16.36;69.63;100243.13;4982347;28;20038;-87
2021/04/29 11:21:29;;;;;;;22.50;15.32;;;;;;;16.36;69.71;100243.13;4984704;28;20590;-87
2021/04/29 11:24:14;;;;;;;26.55;18.30;;;;;;;16.20;70.45;100240.50;4984667;28;20046;-86
2021/04/29 11:26:59;;;;;;;;;;;;;;;16.24;70.27;100243.31;4985022;28;20058;-85
2021/04/29 11:29:44;;;;;;;22.60;17.33;;;;;;;16.20;70.22;100242.47;4981006;28;19914;-86
2021/04/29 11:32:32;;;;;;;24.00;17.63;;;;;;;16.17;71.07;100235.75;4985924;28;20050;-83
2021/04/29 11:35:28;;;;;;;23.17;18.20;;;;;;;16.16;71.19;100233.34;4962973;28;20058;-87
2021/04/29 11:38:13;;;;;;;20.30;14.10;;;;;;;16.21;71.29;100239.34;4967938;28;20036;-86
2021/04/29 11:40:59;;;;;;;31.67;17.77;;;;;;;16.21;71.37;100228.38;4968203;28;20058;-86
2021/04/29 11:43:55;;;;;;;28.23;17.95;;;;;;;16.25;71.66;100223.72;4975961;28;20038;-86
2021/04/29 11:46:40;;;;;;;28.15;20.10;;;;;;;16.24;71.46;100229.59;4987008;28;20089;-86
2021/04/29 11:49:25;;;;;;;;;;;;;;;16.31;71.71;100224.22;5003820;28;20043;-87
2021/04/29 11:52:09;;;;;;;30.48;17.52;;;;;;;16.35;71.55;100229.78;5000404;28;19913;-86
2021/04/29 11:54:54;;;;;;;;;;;;;;;16.31;72.62;100215.19;5011861;28;20050;-86
2021/04/29 11:57:39;;;;;;;23.17;17.70;;;;;;;16.35;72.19;100208.63;5006507;28;20375;-86
2021/04/29 12:00:31;;;;;;;19.15;12.98;;;;;;;16.41;71.47;100207.16;4997799;28;20065;-86
2021/04/29 12:03:18;;;;;;;25.30;16.80;;;;;;;16.46;70.46;100214.28;5000679;28;20050;-86
2021/04/29 12:06:04;;;;;;;21.55;14.90;;;;;;;16.55;70.18;100203.88;5002110;28;20045;-86
2021/04/29 12:08:50;;;;;;;21.05;14.77;;;;;;;16.56;69.71;100197.19;4997787;28;20038;-87
2021/04/29 12:11:34;;;;;;;19.50;14.23;;;;;;;16.54;69.85;100194.84;5005994;28;20073;-87
2021/04/29 12:14:21;;;;;;;22.58;14.65;;;;;;;16.61;69.96;100194.16;5006129;28;20053;-88
2021/04/29 12:17:07;;;;;;;21.42;15.05;;;;;;;16.60;69.73;100187.09;4987529;28;20125;-86
2021/04/29 12:19:55;;;;;;;20.52;15.35;;;;;;;16.47;69.34;100188.41;5001522;28;20050;-86
2021/04/29 12:22:41;;;;;;;25.75;15.52;;;;;;;16.55;69.77;100182.69;5001778;28;20049;-86
2021/04/29 12:25:26;;;;;;;;;;;;;;;16.61;69.85;100186.72;4996614;28;20041;-85
2021/04/29 12:28:16;;;;;;;18.67;14.13;;;;;;;16.62;69.12;100179.28;4998578;28;19914;-84
2021/04/29 12:31:23;;;;;;;24.90;16.50;;;;;;;16.61;69.25;100183.97;5001923;28;20496;-84
2021/04/29 12:34:19;;;;;;;22.45;14.60;;;;;;;16.72;68.03;100183.34;5003826;28;20050;-84
2021/04/29 12:37:06;;;;;;;20.60;14.60;;;;;;;16.69;69.03;100190.38;5002180;28;20042;-84
2021/04/29 12:39:51;;;;;;;20.83;16.17;;;;;;;16.75;69.24;100180.69;4985176;28;20049;-84
2021/04/29 12:42:36;;;;;;;26.13;15.70;;;;;;;16.80;69.10;100174.06;5003432;28;20416;-85
2021/04/29 12:45:21;;;;;;;;;;;;;;;16.85;69.51;100177.28;4988510;28;20042;-85
2021/04/29 12:48:05;;;;;;;20.73;15.73;;;;;;;16.81;69.51;100161.94;5000206;28;19918;-84
2021/04/29 12:51:09;;;;;;;;;;;;;;;16.86;68.32;100167.09;5005002;28;20039;-85
2021/04/29 12:54:01;;;;;;;21.58;15.77;;;;;;;16.94;69.16;100158.59;5000960;28;19917;-86
2021/04/29 12:56:57;;;;;;;18.60;13.80;;;;;;;16.97;68.35;100171.56;4999041;28;20065;-85
2021/04/29 12:59:45;;;;;;;18.98;14.32;;;;;;;16.99;68.52;100172.00;4998351;28;20034;-86
2021/04/29 13:02:30;;;;;;;21.75;14.73;;;;;;;17.02;68.08;100162.19;5005305;28;20125;-81
2021/04/29 13:05:16;;;;;;;14.20;11.05;;;;;;;16.99;67.81;100155.50;4994438;28;20491;-82
2021/04/29 13:08:02;;;;;;;19.35;11.40;;;;;;;17.13;67.27;100154.91;4976665;28;20046;-82
2021/04/29 13:10:47;;;;;;;21.75;12.07;;;;;;;17.15;66.79;100157.28;5002569;28;20404;-81
2021/04/29 13:13:31;;;;;;;;;;;;;;;17.20;66.33;100157.75;5012022;28;20046;-81
2021/04/29 13:16:27;;;;;;;18.50;13.85;;;;;;;17.10;65.78;100156.47;5001052;28;19914;-82
2021/04/29 13:19:15;;;;;;;20.02;14.32;;;;;;;17.09;67.23;100149.38;5007213;28;20049;-82